全部
Biggendon Airport (Biggendon Queensland) YBIN 天气
There is no TAF data available at YBIN or any nearby airports.
There is no METAR data available at YBIN. Showing METAR data for YGAY (27 mi W).
GAH近期METAR历史数据(YBIN无数据)
| Date | Time (AEST) | Flight Rules | Wind Dir. | Speed | Type | Height AGL (ft) | Visibility | Temp (°C) | Temp (°F) | Dew Point (°C) | Dew Point (°F) | Rel. Humid. | Pressure | Density Altitude | Remarks |
|---|---|---|---|---|---|---|---|---|---|---|---|---|---|---|---|
| 04-五月 | 06:00 | n/a | 230° | 2 kt | Missing | 11° | 51° | 10° | 50° | 94% | 1017 mb | -223 ft | |||
| 04-五月 | 05:00 | n/a | Calm | Missing | 11° | 51° | 11° | 51° | 100% | 1017 mb | -223 ft | ||||
| 04-五月 | 04:00 | n/a | Calm | Missing | 11° | 51° | 11° | 51° | 100% | 1017 mb | -223 ft | ||||
| 04-五月 | 03:00 | n/a | 270° | 1 kt | Missing | 12° | 53° | 12° | 53° | 100% | 1017 mb | -103 ft | |||
| 04-五月 | 02:00 | n/a | Calm | Missing | 13° | 55° | 12° | 53° | 94% | 1018 mb | -13 ft | ||||
| 04-五月 | 01:00 | n/a | Calm | Missing | 13° | 55° | 12° | 53° | 94% | 1018 mb | -13 ft | ||||
| 04-五月 | 00:00 | n/a | Calm | Missing | 14° | 57° | 14° | 57° | 100% | 1019 mb | 78 ft | ||||
| 03-五月 | 23:00 | n/a | 270° | 1 kt | Missing | 14° | 57° | 13° | 55° | 94% | 1019 mb | 78 ft | |||
| 03-五月 | 22:00 | n/a | 270° | 1 kt | Missing | 16° | 60° | 14° | 57° | 88% | 1019 mb | 318 ft | |||
| 03-五月 | 21:00 | n/a | 110° | 1 kt | Missing | 17° | 62° | 14° | 57° | 82% | 1019 mb | 438 ft | |||
| 03-五月 | 20:00 | n/a | 100° | 2 kt | Missing | 19° | 66° | 14° | 57° | 73% | 1019 mb | 678 ft | |||
| 03-五月 | 19:00 | n/a | 80° | 3 kt | Missing | 20° | 68° | 14° | 57° | 68% | 1018 mb | 827 ft | |||
| 03-五月 | 18:00 | n/a | 80° | 5 kt | Missing | 22° | 71° | 14° | 57° | 60% | 1017 mb | 1,097 ft | |||
| 03-五月 | 17:00 | n/a | 90° | 4 kt | Missing | 26° | 78° | 14° | 57° | 48% | 1017 mb | 1,577 ft | |||
| 03-五月 | 16:00 | n/a | 110° | 7 kt | Missing | 27° | 80° | 14° | 57° | 45% | 1017 mb | 1,697 ft | |||
| 03-五月 | 15:00 | n/a | 110° | 7 kt | Missing | 28° | 82° | 14° | 57° | 42% | 1016 mb | 1,847 ft | |||
| 03-五月 | 14:00 | n/a | 110° | 6 kt | Missing | 28° | 82° | 14° | 57° | 42% | 1017 mb | 1,817 ft | |||
| 03-五月 | 13:00 | n/a | 90° | 9 kt | Missing | 28° | 82° | 15° | 59° | 45% | 1017 mb | 1,817 ft | |||
| 03-五月 | 12:00 | n/a | 110° | 9 kt | Missing | 28° | 82° | 15° | 59° | 45% | 1018 mb | 1,787 ft | |||
| 03-五月 | 11:00 | n/a | 80° | 10 kt | Missing | 27° | 80° | 15° | 59° | 48% | 1019 mb | 1,638 ft | |||
| 03-五月 | 10:00 | n/a | 110° | 8 kt | Missing | 25° | 77° | 16° | 60° | 57% | 1020 mb | 1,368 ft | |||
| 03-五月 | 09:00 | n/a | 140° | 5 kt | Missing | 23° | 73° | 16° | 60° | 65% | 1020 mb | 1,128 ft | |||
| 03-五月 | 08:00 | n/a | 260° | 3 kt | Missing | 20° | 68° | 17° | 62° | 83% | 1020 mb | 768 ft | |||
| 03-五月 | 07:00 | n/a | 260° | 3 kt | Missing | 16° | 60° | 16° | 60° | 100% | 1019 mb | 318 ft |
登录
| 您的浏览器不支持. 升级您的浏览器 |
